Time,TemperatureF,DewpointF,PressureIn,WindDirection,WindDirectionDegrees,WindSpeedMPH,WindSpeedGustMPH,Humidity,HourlyPrecipIn,Conditions,Clouds,dailyrainin,SoftwareType,DateUTC
2013-05-15 00:01:00,49.3,41.0,0.00,SW,234,0.0,0.0,73,0.00,CLR,CLR,0.00,WeatherDisplay:10.37,2013-05-15 04:01:00,
2013-05-15 00:02:00,49.3,41.0,0.00,SW,234,0.0,0.0,73,0.00,CLR,CLR,0.00,WeatherDisplay:10.37,2013-05-15 04:02:00,
2013-05-15 00:03:00,49.2,40.9,0.00,SW,234,0.0,0.0,73,0.00,CLR,CLR,0.00,WeatherDisplay:10.37,2013-05-15 04:03:00,
2013-05-15 00:05:00,49.1,40.8,0.00,SW,234,0.0,0.0,73,0.00,CLR,CLR,0.00,WeatherDisplay:10.37,2013-05-15 04:05:00,
2013-05-15 00:10:00,49.1,41.2,0.00,SW,234,0.0,0.0,74,0.00,CLR,CLR,0.00,WeatherDisplay:10.37,2013-05-15 04:10:00,
2013-05-15 00:15:00,49.0,41.1,0.00,SW,234,0.0,0.0,74,0.00,CLR,CLR,0.00,WeatherDisplay:10.37,2013-05-15 04:15:00,
2013-05-15 00:20:00,48.9,41.0,0.00,SW,234,0.0,0.0,74,0.00,CLR,CLR,0.00,WeatherDisplay:10.37,2013-05-15 04:20:00,
2013-05-15 00:26:00,48.8,40.9,0.00,SW,234,0.0,0.0,74,0.00,CLR,CLR,0.00,WeatherDisplay:10.37,2013-05-15 04:26:00,
2013-05-15 00:31:00,48.7,41.1,0.00,SW,234,0.0,0.0,75,0.00,CLR,CLR,0.00,WeatherDisplay:10.37,2013-05-15 04:31:00,
2013-05-15 00:36:00,48.7,41.1,0.00,SW,234,2.3,2.3,75,0.00,CLR,CLR,0.00,WeatherDisplay:10.37,2013-05-15 04:36:00,
2013-05-15 00:41:00,48.5,40.6,0.00,WSW,248,2.3,2.3,74,0.00,CLR,CLR,0.00,WeatherDisplay:10.37,2013-05-15 04:41:00,
2013-05-15 00:46:00,48.4,40.8,0.00,SW,219,0.0,0.0,75,0.00,CLR,CLR,0.00,WeatherDisplay:10.37,2013-05-15 04:46:00,
2013-05-15 00:51:00,48.5,40.9,0.00,WSW,243,3.5,3.5,75,0.00,CLR,CLR,0.00,WeatherDisplay:10.37,2013-05-15 04:51:00,
2013-05-15 00:57:00,48.2,40.6,0.00,WSW,246,0.0,0.0,75,0.00,CLR,CLR,0.00,WeatherDisplay:10.37,2013-05-15 04:57:00,
2013-05-15 01:02:00,48.1,40.5,0.00,WSW,237,2.3,2.3,75,0.00,CLR,CLR,0.00,WeatherDisplay:10.37,2013-05-15 05:02:00,
2013-05-15 01:07:00,48.0,40.5,0.00,WSW,250,2.3,2.3,75,0.00,CLR,CLR,0.00,WeatherDisplay:10.37,2013-05-15 05:07:00,
2013-05-15 01:12:00,47.9,40.4,0.00,WSW,248,0.0,0.0,75,0.00,CLR,CLR,0.00,WeatherDisplay:10.37,2013-05-15 05:12:00,
2013-05-15 01:17:00,47.9,40.7,0.00,WSW,248,0.0,0.0,76,0.00,CLR,CLR,0.00,WeatherDisplay:10.37,2013-05-15 05:17:00,
2013-05-15 01:22:00,47.8,40.6,0.00,WSW,248,0.0,0.0,76,0.00,CLR,CLR,0.00,WeatherDisplay:10.37,2013-05-15 05:22:00,
2013-05-15 01:28:00,47.9,40.7,0.00,WSW,248,0.0,0.0,76,0.00,CLR,CLR,0.00,WeatherDisplay:10.37,2013-05-15 05:28:00,
2013-05-15 01:33:00,47.9,40.7,0.00,WSW,248,0.0,0.0,76,0.00,CLR,CLR,0.00,WeatherDisplay:10.37,2013-05-15 05:33:00,
2013-05-15 01:38:00,47.8,40.9,0.00,WSW,248,0.0,0.0,77,0.00,CLR,CLR,0.00,WeatherDisplay:10.37,2013-05-15 05:38:00,
2013-05-15 01:43:00,47.7,40.8,0.00,WSW,248,0.0,0.0,77,0.00,CLR,CLR,0.00,WeatherDisplay:10.37,2013-05-15 05:43:00,
2013-05-15 01:48:00,47.7,40.8,0.00,WSW,248,0.0,0.0,77,0.00,CLR,CLR,0.00,WeatherDisplay:10.37,2013-05-15 05:48:00,
2013-05-15 01:54:00,47.6,40.7,0.00,WSW,248,0.0,0.0,77,0.00,CLR,CLR,0.00,WeatherDisplay:10.37,2013-05-15 05:54:00,
2013-05-15 01:59:00,47.5,40.6,0.00,WSW,248,0.0,0.0,77,0.00,CLR,CLR,0.00,WeatherDisplay:10.37,2013-05-15 05:59:00,
2013-05-15 02:04:00,47.4,40.6,0.00,WSW,248,0.0,0.0,77,0.00,CLR,CLR,0.00,WeatherDisplay:10.37,2013-05-15 06:04:00,
2013-05-15 02:09:00,47.4,40.6,0.00,WSW,248,0.0,0.0,77,0.00,CLR,CLR,0.00,WeatherDisplay:10.37,2013-05-15 06:09:00,
2013-05-15 02:14:00,47.3,40.5,0.00,WSW,248,0.0,0.0,77,0.00,CLR,CLR,0.00,WeatherDisplay:10.37,2013-05-15 06:14:00,
2013-05-15 02:19:00,47.1,40.3,0.00,WSW,248,0.0,0.0,77,0.00,CLR,CLR,0.00,WeatherDisplay:10.37,2013-05-15 06:19:00,
2013-05-15 02:25:00,46.9,40.1,0.00,WSW,258,0.0,0.0,77,0.00,CLR,CLR,0.00,WeatherDisplay:10.37,2013-05-15 06:25:00,
2013-05-15 02:30:00,46.7,39.5,0.00,NW,320,0.7,0.0,76,0.00,CLR,CLR,0.00,WeatherDisplay:10.37,2013-05-15 06:30:00,
2013-05-15 02:35:00,46.3,39.1,0.00,NW,320,0.0,0.0,76,0.00,CLR,CLR,0.00,WeatherDisplay:10.37,2013-05-15 06:35:00,
2013-05-15 02:40:00,46.2,39.1,0.00,West,267,1.2,1.2,76,0.00,CLR,CLR,0.00,WeatherDisplay:10.37,2013-05-15 06:40:00,
2013-05-15 02:45:00,46.2,39.1,0.00,West,267,0.0,0.0,76,0.00,CLR,CLR,0.00,WeatherDisplay:10.37,2013-05-15 06:45:00,
2013-05-15 02:51:00,46.3,39.1,0.00,West,267,0.0,0.0,76,0.00,CLR,CLR,0.00,WeatherDisplay:10.37,2013-05-15 06:51:00,
2013-05-15 02:56:00,46.5,39.3,0.00,West,267,0.0,0.0,76,0.00,CLR,CLR,0.00,WeatherDisplay:10.37,2013-05-15 06:56:00,
2013-05-15 03:01:00,46.6,39.8,0.00,West,267,0.0,0.0,77,0.00,CLR,CLR,0.00,WeatherDisplay:10.37,2013-05-15 07:01:00,
2013-05-15 03:06:00,46.6,39.8,0.00,West,267,0.0,0.0,77,0.00,CLR,CLR,0.00,WeatherDisplay:10.37,2013-05-15 07:06:00,
2013-05-15 03:11:00,46.5,39.7,0.00,West,267,0.0,0.0,77,0.00,CLR,CLR,0.00,WeatherDisplay:10.37,2013-05-15 07:11:00,
2013-05-15 03:16:00,46.4,39.6,0.00,West,267,0.0,0.0,77,0.00,CLR,CLR,0.00,WeatherDisplay:10.37,2013-05-15 07:16:00,
2013-05-15 03:22:00,46.2,39.4,0.00,West,267,0.0,0.0,77,0.00,CLR,CLR,0.00,WeatherDisplay:10.37,2013-05-15 07:22:00,
2013-05-15 03:27:00,46.2,39.4,0.00,West,267,0.0,0.0,77,0.00,CLR,CLR,0.00,WeatherDisplay:10.37,2013-05-15 07:27:00,
2013-05-15 03:32:00,46.0,39.5,0.00,West,267,0.0,0.0,78,0.00,CLR,CLR,0.00,WeatherDisplay:10.37,2013-05-15 07:32:00,
2013-05-15 03:37:00,45.9,39.4,0.00,West,267,0.0,0.0,78,0.00,CLR,CLR,0.00,WeatherDisplay:10.37,2013-05-15 07:37:00,
2013-05-15 03:42:00,46.0,39.5,0.00,West,267,0.0,0.0,78,0.00,CLR,CLR,0.00,WeatherDisplay:10.37,2013-05-15 07:42:00,
2013-05-15 03:47:00,45.4,38.9,0.00,West,267,0.0,0.0,78,0.00,CLR,CLR,0.00,WeatherDisplay:10.37,2013-05-15 07:47:00,
2013-05-15 03:52:00,45.6,39.1,0.00,West,267,0.0,0.0,78,0.00,CLR,CLR,0.00,WeatherDisplay:10.37,2013-05-15 07:52:00,
2013-05-15 03:57:00,45.5,39.0,0.00,West,267,0.0,0.0,78,0.00,CLR,CLR,0.00,WeatherDisplay:10.37,2013-05-15 07:57:00,
2013-05-15 04:03:00,45.4,38.9,0.00,West,267,0.0,0.0,78,0.00,CLR,CLR,0.00,WeatherDisplay:10.37,2013-05-15 08:03:00,
2013-05-15 04:08:00,45.4,38.9,0.00,West,267,0.0,0.0,78,0.00,CLR,CLR,0.00,WeatherDisplay:10.37,2013-05-15 08:08:00,
2013-05-15 04:13:00,45.1,38.6,0.00,West,267,0.0,0.0,78,0.00,CLR,CLR,0.00,WeatherDisplay:10.37,2013-05-15 08:13:00,
2013-05-15 04:18:00,45.0,38.6,0.00,West,267,0.0,0.0,78,0.00,CLR,CLR,0.00,WeatherDisplay:10.37,2013-05-15 08:18:00,
2013-05-15 04:23:00,45.0,38.6,0.00,West,267,0.0,0.0,78,0.00,CLR,CLR,0.00,WeatherDisplay:10.37,2013-05-15 08:23:00,
2013-05-15 04:28:00,44.8,38.4,0.00,West,267,0.0,0.0,78,0.00,CLR,CLR,0.00,WeatherDisplay:10.37,2013-05-15 08:28:00,
2013-05-15 04:33:00,44.7,38.6,0.00,West,267,0.0,0.0,79,0.00,CLR,CLR,0.00,WeatherDisplay:10.37,2013-05-15 08:33:00,
2013-05-15 04:39:00,44.7,38.6,0.00,West,267,0.0,0.0,79,0.00,CLR,CLR,0.00,WeatherDisplay:10.37,2013-05-15 08:39:00,
2013-05-15 04:44:00,44.6,38.5,0.00,West,267,0.0,0.0,79,0.00,CLR,CLR,0.00,WeatherDisplay:10.37,2013-05-15 08:44:00,
2013-05-15 04:49:00,44.6,38.5,0.00,West,267,0.0,0.0,79,0.00,CLR,CLR,0.00,WeatherDisplay:10.37,2013-05-15 08:49:00,
2013-05-15 04:54:00,44.6,38.5,0.00,West,267,0.0,0.0,79,0.00,CLR,CLR,0.00,WeatherDisplay:10.37,2013-05-15 08:54:00,
2013-05-15 04:59:00,44.5,38.4,0.00,West,267,0.0,0.0,79,0.00,CLR,CLR,0.00,WeatherDisplay:10.37,2013-05-15 08:59:00,
2013-05-15 05:05:00,44.4,38.3,0.00,West,267,0.0,0.0,79,0.00,CLR,CLR,0.00,WeatherDisplay:10.37,2013-05-15 09:05:00,
2013-05-15 05:10:00,44.3,38.5,0.00,West,267,0.0,0.0,80,0.00,CLR,CLR,0.00,WeatherDisplay:10.37,2013-05-15 09:10:00,
2013-05-15 05:15:00,44.3,38.5,0.00,West,267,0.0,0.0,80,0.00,CLR,CLR,0.00,WeatherDisplay:10.37,2013-05-15 09:15:00,
2013-05-15 05:20:00,44.2,38.4,0.00,West,267,0.0,0.0,80,0.00,CLR,CLR,0.00,WeatherDisplay:10.37,2013-05-15 09:20:00,
2013-05-15 05:25:00,44.1,38.3,0.00,West,267,0.0,0.0,80,0.00,CLR,CLR,0.00,WeatherDisplay:10.37,2013-05-15 09:25:00,
2013-05-15 05:30:00,44.3,38.5,0.00,West,267,0.0,0.0,80,0.00,CLR,CLR,0.00,WeatherDisplay:10.37,2013-05-15 09:30:00,
2013-05-15 05:36:00,43.9,38.1,0.00,West,267,0.0,0.0,80,0.00,CLR,CLR,0.00,WeatherDisplay:10.37,2013-05-15 09:36:00,
2013-05-15 05:41:00,44.0,38.2,0.00,West,267,0.0,0.0,80,0.00,CLR,CLR,0.00,WeatherDisplay:10.37,2013-05-15 09:41:00,
2013-05-15 05:46:00,43.9,38.1,0.00,West,267,0.0,0.0,80,0.00,CLR,CLR,0.00,WeatherDisplay:10.37,2013-05-15 09:46:00,
2013-05-15 05:51:00,43.8,38.0,0.00,West,267,0.0,0.0,80,0.00,CLR,CLR,0.00,WeatherDisplay:10.37,2013-05-15 09:51:00,
2013-05-15 05:56:00,43.8,38.0,0.00,West,267,0.0,0.0,80,0.00,CLR,CLR,0.00,WeatherDisplay:10.37,2013-05-15 09:56:00,
2013-05-15 06:02:00,43.8,38.0,0.00,West,267,0.0,0.0,80,0.00,CLR,CLR,0.00,WeatherDisplay:10.37,2013-05-15 10:02:00,
2013-05-15 06:07:00,43.7,38.3,0.00,West,267,0.0,0.0,81,0.00,CLR,CLR,0.00,WeatherDisplay:10.37,2013-05-15 10:07:00,
2013-05-15 06:12:00,43.7,38.3,0.00,West,267,0.0,0.0,81,0.00,CLR,CLR,0.00,WeatherDisplay:10.37,2013-05-15 10:12:00,
2013-05-15 06:17:00,43.8,38.7,0.00,West,267,0.0,0.0,82,0.00,CLR,CLR,0.00,WeatherDisplay:10.37,2013-05-15 10:17:00,
2013-05-15 06:22:00,43.9,38.4,0.00,West,267,0.0,0.0,81,0.00,CLR,CLR,0.00,WeatherDisplay:10.37,2013-05-15 10:22:00,
2013-05-15 06:27:00,43.9,38.4,0.00,West,267,0.0,0.0,81,0.00,CLR,CLR,0.00,WeatherDisplay:10.37,2013-05-15 10:27:00,
2013-05-15 06:33:00,44.0,38.9,0.00,West,267,0.0,0.0,82,0.00,CLR,CLR,0.00,WeatherDisplay:10.37,2013-05-15 10:33:00,
2013-05-15 06:38:00,44.1,39.0,0.00,West,267,0.0,0.0,82,0.00,CLR,CLR,0.00,WeatherDisplay:10.37,2013-05-15 10:38:00,
2013-05-15 06:43:00,44.1,39.0,0.00,West,267,0.0,0.0,82,0.00,CLR,CLR,0.00,WeatherDisplay:10.37,2013-05-15 10:43:00,
2013-05-15 06:48:00,44.2,39.1,0.00,West,267,0.0,0.0,82,0.00,CLR,CLR,0.00,WeatherDisplay:10.37,2013-05-15 10:48:00,
2013-05-15 06:53:00,44.3,39.2,0.00,West,267,0.0,0.0,82,0.00,CLR,CLR,0.00,WeatherDisplay:10.37,2013-05-15 10:53:00,
2013-05-15 06:58:00,44.8,39.6,0.00,West,267,0.0,0.0,82,0.00,CLR,CLR,0.00,WeatherDisplay:10.37,2013-05-15 10:58:00,
2013-05-15 07:03:00,44.8,39.6,0.00,West,267,0.0,0.0,82,0.00,CLR,CLR,0.00,WeatherDisplay:10.37,2013-05-15 11:03:00,
2013-05-15 07:09:00,44.8,40.0,0.00,West,267,0.0,0.0,83,0.00,CLR,CLR,0.00,WeatherDisplay:10.37,2013-05-15 11:09:00,
2013-05-15 07:14:00,44.9,39.7,0.00,West,267,0.0,0.0,82,0.00,CLR,CLR,0.00,WeatherDisplay:10.37,2013-05-15 11:14:00,
2013-05-15 07:19:00,45.1,39.9,0.00,West,267,0.0,0.0,82,0.00,CLR,CLR,0.00,WeatherDisplay:10.37,2013-05-15 11:19:00,
2013-05-15 07:24:00,45.3,40.1,0.00,West,267,0.0,0.0,82,0.00,CLR,CLR,0.00,WeatherDisplay:10.37,2013-05-15 11:24:00,
2013-05-15 07:29:00,45.7,40.5,0.00,West,267,0.0,0.0,82,0.00,CLR,CLR,0.00,WeatherDisplay:10.37,2013-05-15 11:29:00,
2013-05-15 07:34:00,45.9,40.4,0.00,West,267,0.0,0.0,81,0.00,CLR,CLR,0.00,WeatherDisplay:10.37,2013-05-15 11:34:00,
2013-05-15 07:40:00,46.2,40.7,0.00,West,267,0.0,0.0,81,0.00,CLR,CLR,0.00,WeatherDisplay:10.37,2013-05-15 11:40:00,
2013-05-15 07:45:00,46.4,40.2,0.00,West,267,0.0,0.0,79,0.00,CLR,CLR,0.00,WeatherDisplay:10.37,2013-05-15 11:45:00,
2013-05-15 07:51:00,46.8,40.6,0.00,West,267,0.0,0.0,79,0.00,CLR,CLR,0.00,WeatherDisplay:10.37,2013-05-15 11:51:00,
2013-05-15 07:56:00,47.0,40.5,0.00,SSW,200,0.0,0.0,78,0.00,CLR,CLR,0.00,WeatherDisplay:10.37,2013-05-15 11:56:00,
2013-05-15 08:01:00,47.2,40.4,0.00,WSW,257,3.5,3.5,77,0.00,CLR,CLR,0.00,WeatherDisplay:10.37,2013-05-15 12:01:00,
2013-05-15 08:07:00,47.5,40.6,0.00,SW,216,2.0,2.0,77,0.00,CLR,CLR,0.00,WeatherDisplay:10.37,2013-05-15 12:07:00,
2013-05-15 08:12:00,47.9,40.7,0.00,SW,234,0.0,0.0,76,0.00,CLR,CLR,0.00,WeatherDisplay:10.37,2013-05-15 12:12:00,
2013-05-15 08:17:00,48.2,41.0,0.00,WSW,246,0.0,0.0,76,0.00,CLR,CLR,0.00,WeatherDisplay:10.37,2013-05-15 12:17:00,
2013-05-15 08:22:00,48.5,40.9,0.00,SW,229,0.0,0.0,75,0.00,CLR,CLR,0.00,WeatherDisplay:10.37,2013-05-15 12:22:00,
2013-05-15 08:27:00,48.9,41.3,0.00,North,11,1.2,0.0,75,0.00,CLR,CLR,0.00,WeatherDisplay:10.37,2013-05-15 12:27:00,
2013-05-15 08:32:00,49.3,41.4,0.00,WNW,282,0.0,0.0,74,0.00,CLR,CLR,0.00,WeatherDisplay:10.37,2013-05-15 12:32:00,
2013-05-15 08:38:00,49.6,41.3,0.00,NE,35,2.3,2.3,73,0.00,CLR,CLR,0.00,WeatherDisplay:10.37,2013-05-15 12:38:00,
2013-05-15 08:43:00,49.9,41.6,0.00,WSW,243,0.0,0.1,73,0.00,CLR,CLR,0.00,WeatherDisplay:10.37,2013-05-15 12:43:00,
2013-05-15 08:48:00,50.2,41.9,0.00,WSW,243,0.0,0.0,73,0.00,CLR,CLR,0.00,WeatherDisplay:10.37,2013-05-15 12:48:00,
2013-05-15 08:54:00,50.5,41.8,0.00,WSW,243,0.0,0.0,72,0.00,CLR,CLR,0.00,WeatherDisplay:10.37,2013-05-15 12:54:00,
2013-05-15 08:59:00,50.8,42.1,0.00,SW,225,0.0,0.0,72,0.00,CLR,CLR,0.00,WeatherDisplay:10.37,2013-05-15 12:59:00,
2013-05-15 09:04:00,51.2,42.5,0.00,WNW,282,2.3,2.3,72,0.00,CLR,CLR,0.00,WeatherDisplay:10.37,2013-05-15 13:04:00,
2013-05-15 09:09:00,51.6,42.5,0.00,NW,313,0.0,0.0,71,0.00,CLR,CLR,0.00,WeatherDisplay:10.37,2013-05-15 13:09:00,
2013-05-15 09:14:00,51.9,42.8,0.00,WNW,287,0.0,0.0,71,0.00,CLR,CLR,0.00,WeatherDisplay:10.37,2013-05-15 13:14:00,
2013-05-15 09:19:00,52.1,42.2,0.00,SSW,209,4.6,4.6,69,0.00,CLR,CLR,0.00,WeatherDisplay:10.37,2013-05-15 13:19:00,
2013-05-15 09:25:00,52.4,42.5,0.00,WSW,243,8.1,8.1,69,0.00,CLR,CLR,0.00,WeatherDisplay:10.37,2013-05-15 13:25:00,
2013-05-15 09:30:00,52.8,43.3,0.00,NNW,329,1.2,1.2,70,0.00,CLR,CLR,0.00,WeatherDisplay:10.37,2013-05-15 13:30:00,
2013-05-15 09:35:00,53.2,42.9,0.00,WSW,253,0.0,2.3,68,0.00,CLR,CLR,0.00,WeatherDisplay:10.37,2013-05-15 13:35:00,
2013-05-15 09:40:00,53.4,43.1,0.00,WSW,257,3.5,3.5,68,0.00,CLR,CLR,0.00,WeatherDisplay:10.37,2013-05-15 13:40:00,
2013-05-15 09:46:00,53.5,43.6,0.00,West,274,0.0,7.0,69,0.00,CLR,CLR,0.00,WeatherDisplay:10.37,2013-05-15 13:46:00,
2013-05-15 09:51:00,53.8,43.9,0.00,SW,233,0.0,0.0,69,0.00,CLR,CLR,0.00,WeatherDisplay:10.37,2013-05-15 13:51:00,
2013-05-15 09:56:00,54.0,43.7,0.00,NW,309,3.5,3.5,68,0.00,CLR,CLR,0.00,WeatherDisplay:10.37,2013-05-15 13:56:00,
2013-05-15 10:02:00,54.3,44.0,0.00,WNW,285,6.9,6.9,68,0.00,CLR,CLR,0.00,WeatherDisplay:10.37,2013-05-15 14:02:00,
2013-05-15 10:07:00,54.7,44.7,0.00,NNE,31,1.2,1.2,69,0.00,CLR,CLR,0.00,WeatherDisplay:10.37,2013-05-15 14:07:00,
2013-05-15 10:12:00,55.2,44.4,0.00,North,0,6.9,6.9,67,0.00,CLR,CLR,0.00,WeatherDisplay:10.37,2013-05-15 14:12:00,
2013-05-15 10:17:00,55.6,44.0,0.00,SE,130,9.2,9.2,65,0.00,CLR,CLR,0.00,WeatherDisplay:10.37,2013-05-15 14:17:00,
2013-05-15 10:24:00,56.2,43.8,0.00,West,263,10.4,10.4,63,0.00,CLR,CLR,0.00,WeatherDisplay:10.37,2013-05-15 14:24:00,
2013-05-15 10:30:00,56.8,44.3,0.00,SW,233,9.2,9.2,63,0.00,CLR,CLR,0.00,WeatherDisplay:10.37,2013-05-15 14:30:00,
2013-05-15 10:35:00,57.3,44.4,0.00,West,260,10.4,10.4,62,0.00,CLR,CLR,0.00,WeatherDisplay:10.37,2013-05-15 14:35:00,
2013-05-15 10:40:00,57.8,45.3,0.00,South,182,0.0,0.0,63,0.00,CLR,CLR,0.00,WeatherDisplay:10.37,2013-05-15 14:40:00,
2013-05-15 10:45:00,58.1,45.1,0.00,SW,236,4.6,4.6,62,0.00,CLR,CLR,0.00,WeatherDisplay:10.37,2013-05-15 14:45:00,
2013-05-15 10:51:00,58.4,45.4,0.00,East,93,2.3,2.3,62,0.00,CLR,CLR,0.00,WeatherDisplay:10.37,2013-05-15 14:51:00,
2013-05-15 10:56:00,58.6,45.2,0.00,WSW,246,3.5,3.5,61,0.00,CLR,CLR,0.00,WeatherDisplay:10.37,2013-05-15 14:56:00,
2013-05-15 11:01:00,58.8,44.9,0.00,ENE,66,3.5,3.5,60,0.00,CLR,CLR,0.00,WeatherDisplay:10.37,2013-05-15 15:01:00,
2013-05-15 11:07:00,58.9,45.0,0.00,SSW,203,2.3,2.3,60,0.00,CLR,CLR,0.00,WeatherDisplay:10.37,2013-05-15 15:07:00,
2013-05-15 11:13:00,58.9,45.0,0.00,ENE,72,1.2,1.2,60,0.00,CLR,CLR,0.00,WeatherDisplay:10.37,2013-05-15 15:13:00,
2013-05-15 11:19:00,58.6,44.8,0.00,WSW,247,5.2,5.2,60,0.00,CLR,CLR,0.00,WeatherDisplay:10.37,2013-05-15 15:19:00,
2013-05-15 11:24:00,58.9,44.6,0.00,WSW,254,4.5,4.5,59,0.00,CLR,CLR,0.00,WeatherDisplay:10.37,2013-05-15 15:24:00,
2013-05-15 11:29:00,59.3,44.5,0.00,SSW,210,6.9,6.9,58,0.00,CLR,CLR,0.00,WeatherDisplay:10.37,2013-05-15 15:29:00,
2013-05-15 11:35:00,59.5,44.7,0.00,WSW,243,4.6,4.6,58,0.00,CLR,CLR,0.00,WeatherDisplay:10.37,2013-05-15 15:35:00,
2013-05-15 11:40:00,59.9,45.1,0.00,WSW,246,10.4,10.4,58,0.00,CLR,CLR,0.00,WeatherDisplay:10.37,2013-05-15 15:40:00,
2013-05-15 11:45:00,60.4,45.1,0.00,ENE,58,6.9,6.9,57,0.00,CLR,CLR,0.00,WeatherDisplay:10.37,2013-05-15 15:45:00,
2013-05-15 11:51:00,60.6,44.8,0.00,NW,305,2.3,2.3,56,0.00,CLR,CLR,0.00,WeatherDisplay:10.37,2013-05-15 15:51:00,
2013-05-15 11:56:00,60.8,45.0,0.00,West,263,2.3,2.3,56,0.00,CLR,CLR,0.00,WeatherDisplay:10.37,2013-05-15 15:56:00,
2013-05-15 12:02:00,61.1,45.3,0.00,North,7,3.5,3.5,56,0.00,CLR,CLR,0.00,WeatherDisplay:10.37,2013-05-15 16:02:00,
2013-05-15 12:07:00,61.2,44.9,0.00,South,179,8.1,8.1,55,0.00,CLR,CLR,0.00,WeatherDisplay:10.37,2013-05-15 16:07:00,
2013-05-15 12:13:00,61.3,45.5,0.00,NNE,24,0.0,0.0,56,0.00,CLR,CLR,0.00,WeatherDisplay:10.37,2013-05-15 16:13:00,
2013-05-15 12:18:00,61.5,45.7,0.00,NE,48,10.4,10.4,56,0.00,CLR,CLR,0.00,WeatherDisplay:10.37,2013-05-15 16:18:00,
2013-05-15 12:23:00,61.6,45.3,0.00,WNW,282,12.7,12.7,55,0.00,CLR,CLR,0.00,WeatherDisplay:10.37,2013-05-15 16:23:00,
2013-05-15 12:29:00,61.5,45.7,0.00,West,261,6.9,6.9,56,0.00,CLR,CLR,0.00,WeatherDisplay:10.37,2013-05-15 16:29:00,
2013-05-15 12:34:00,61.7,46.3,0.00,South,189,4.6,4.6,57,0.00,CLR,CLR,0.00,WeatherDisplay:10.37,2013-05-15 16:34:00,
2013-05-15 12:39:00,61.8,45.9,0.00,East,83,9.2,9.2,56,0.00,CLR,CLR,0.00,WeatherDisplay:10.37,2013-05-15 16:39:00,
2013-05-15 12:44:00,61.9,46.5,0.00,SW,224,6.9,6.9,57,0.00,CLR,CLR,0.00,WeatherDisplay:10.37,2013-05-15 16:44:00,
2013-05-15 12:49:00,61.8,46.4,0.00,WSW,247,2.5,2.5,57,0.00,CLR,CLR,0.00,WeatherDisplay:10.37,2013-05-15 16:49:00,
2013-05-15 12:55:00,62.4,47.0,0.00,WSW,250,1.2,1.2,57,0.00,CLR,CLR,0.00,WeatherDisplay:10.37,2013-05-15 16:55:00,
2013-05-15 13:00:00,62.5,47.5,0.00,WSW,241,0.7,0.0,58,0.00,CLR,CLR,0.00,WeatherDisplay:10.37,2013-05-15 17:00:00,
2013-05-15 13:05:00,62.5,47.5,0.00,WSW,246,2.3,2.3,58,0.00,CLR,CLR,0.00,WeatherDisplay:10.37,2013-05-15 17:05:00,
2013-05-15 13:10:00,62.6,47.1,0.00,East,95,10.4,10.4,57,0.00,CLR,CLR,0.00,WeatherDisplay:10.37,2013-05-15 17:10:00,
2013-05-15 13:16:00,62.6,46.7,0.00,NW,321,2.0,12.0,56,0.00,CLR,CLR,0.00,WeatherDisplay:10.37,2013-05-15 17:16:00,
2013-05-15 13:21:00,62.6,46.7,0.00,SSE,158,6.9,6.9,56,0.00,CLR,CLR,0.00,WeatherDisplay:10.37,2013-05-15 17:21:00,
2013-05-15 13:26:00,62.7,46.8,0.00,SSW,193,8.0,8.0,56,0.00,CLR,CLR,0.00,WeatherDisplay:10.37,2013-05-15 17:26:00,
2013-05-15 13:31:00,62.7,47.2,0.00,ENE,58,6.9,6.9,57,0.00,CLR,CLR,0.00,WeatherDisplay:10.37,2013-05-15 17:31:00,
2013-05-15 13:36:00,62.9,47.4,0.00,West,265,3.5,3.5,57,0.00,CLR,CLR,0.00,WeatherDisplay:10.37,2013-05-15 17:36:00,
2013-05-15 13:41:00,63.0,47.1,0.00,NW,313,8.1,8.1,56,0.00,CLR,CLR,0.00,WeatherDisplay:10.37,2013-05-15 17:41:00,
2013-05-15 13:46:00,63.2,47.2,0.00,West,275,1.5,1.5,56,0.00,CLR,CLR,0.00,WeatherDisplay:10.37,2013-05-15 17:46:00,
2013-05-15 13:52:00,63.3,47.3,0.00,SSW,202,2.3,2.3,56,0.00,CLR,CLR,0.00,WeatherDisplay:10.37,2013-05-15 17:52:00,
2013-05-15 13:57:00,63.5,48.0,0.00,WNW,284,3.5,3.5,57,0.00,CLR,CLR,0.00,WeatherDisplay:10.37,2013-05-15 17:57:00,
2013-05-15 14:02:00,63.5,47.5,0.00,NNE,17,6.9,6.9,56,0.00,CLR,CLR,0.00,WeatherDisplay:10.37,2013-05-15 18:02:00,
2013-05-15 14:07:00,63.5,47.5,0.00,NNE,18,8.1,8.1,56,0.00,CLR,CLR,0.00,WeatherDisplay:10.37,2013-05-15 18:07:00,
2013-05-15 14:13:00,63.5,47.5,0.00,West,260,2.3,2.3,56,0.00,CLR,CLR,0.00,WeatherDisplay:10.37,2013-05-15 18:13:00,
2013-05-15 14:19:00,63.3,46.9,0.00,SW,215,3.5,3.5,55,0.00,CLR,CLR,0.00,WeatherDisplay:10.37,2013-05-15 18:19:00,
2013-05-15 14:24:00,63.5,48.0,0.00,WSW,253,1.2,1.2,57,0.00,CLR,CLR,0.00,WeatherDisplay:10.37,2013-05-15 18:24:00,
2013-05-15 14:29:00,63.2,47.2,0.00,WNW,294,2.3,2.3,56,0.00,CLR,CLR,0.00,WeatherDisplay:10.37,2013-05-15 18:29:00,
2013-05-15 14:35:00,63.2,47.7,0.00,SE,126,4.6,4.6,57,0.00,CLR,CLR,0.00,WeatherDisplay:10.37,2013-05-15 18:35:00,
2013-05-15 14:40:00,63.0,47.5,0.00,WNW,296,3.5,3.5,57,0.00,CLR,CLR,0.00,WeatherDisplay:10.37,2013-05-15 18:40:00,
2013-05-15 14:46:00,62.9,47.4,0.00,WSW,257,3.5,3.5,57,0.00,CLR,CLR,0.00,WeatherDisplay:10.37,2013-05-15 18:46:00,
2013-05-15 14:51:00,62.8,47.3,0.00,WSW,250,4.6,4.6,57,0.00,CLR,CLR,0.00,WeatherDisplay:10.37,2013-05-15 18:51:00,
2013-05-15 14:56:00,62.7,47.2,0.00,West,263,6.4,6.4,57,0.00,CLR,CLR,0.00,WeatherDisplay:10.37,2013-05-15 18:56:00,
2013-05-15 15:02:00,62.7,47.2,0.00,NE,56,2.3,2.3,57,0.00,CLR,CLR,0.00,WeatherDisplay:10.37,2013-05-15 19:02:00,
2013-05-15 15:07:00,62.7,48.2,0.00,South,171,2.3,2.3,59,0.00,CLR,CLR,0.00,WeatherDisplay:10.37,2013-05-15 19:07:00,
2013-05-15 15:12:00,62.6,48.1,0.00,SSW,213,5.8,5.8,59,0.00,CLR,CLR,0.00,WeatherDisplay:10.37,2013-05-15 19:12:00,
2013-05-15 15:18:00,62.5,48.9,0.00,NW,305,1.2,1.2,61,0.00,CLR,CLR,0.00,WeatherDisplay:10.37,2013-05-15 19:18:00,
2013-05-15 15:23:00,62.5,49.3,0.00,SE,136,5.8,5.8,62,0.00,CLR,CLR,0.00,WeatherDisplay:10.37,2013-05-15 19:23:00,
2013-05-15 15:28:00,62.3,49.5,0.00,SW,215,0.0,0.0,63,0.00,CLR,CLR,0.00,WeatherDisplay:10.37,2013-05-15 19:28:00,
2013-05-15 15:34:00,62.1,50.2,0.00,SW,217,3.5,3.5,65,0.00,CLR,CLR,0.00,WeatherDisplay:10.37,2013-05-15 19:34:00,
2013-05-15 15:39:00,61.8,50.7,0.00,NNW,337,4.6,4.6,67,0.00,CLR,CLR,0.00,WeatherDisplay:10.37,2013-05-15 19:39:00,
2013-05-15 15:45:00,61.6,50.9,0.00,NNW,337,0.0,0.0,68,0.00,CLR,CLR,0.00,WeatherDisplay:10.37,2013-05-15 19:45:00,
2013-05-15 15:50:00,61.3,50.6,0.00,WSW,244,0.0,0.0,68,0.00,CLR,CLR,0.00,WeatherDisplay:10.37,2013-05-15 19:50:00,
2013-05-15 15:55:00,61.2,50.6,0.00,WNW,287,2.3,2.3,68,0.00,CLR,CLR,0.00,WeatherDisplay:10.37,2013-05-15 19:55:00,
2013-05-15 16:00:00,61.0,50.8,0.00,WNW,284,0.0,5.0,69,0.00,CLR,CLR,0.00,WeatherDisplay:10.37,2013-05-15 20:00:00,
2013-05-15 16:05:00,60.9,51.0,0.00,WSW,257,6.9,6.9,70,0.00,CLR,CLR,0.00,WeatherDisplay:10.37,2013-05-15 20:05:00,
2013-05-15 16:10:00,60.8,51.7,0.00,SW,223,4.6,4.6,72,0.00,CLR,CLR,0.00,WeatherDisplay:10.37,2013-05-15 20:10:00,
2013-05-15 16:16:00,60.8,52.8,0.00,NE,45,0.6,0.8,75,0.00,CLR,CLR,0.00,WeatherDisplay:10.37,2013-05-15 20:16:00,
2013-05-15 16:21:00,61.0,53.4,0.00,North,354,4.6,4.6,76,0.00,CLR,CLR,0.00,WeatherDisplay:10.37,2013-05-15 20:21:00,
2013-05-15 16:26:00,61.1,53.8,0.00,WNW,294,4.6,4.6,77,0.00,CLR,CLR,0.00,WeatherDisplay:10.37,2013-05-15 20:26:00,
2013-05-15 16:31:00,61.0,53.7,0.00,NW,308,4.6,4.6,77,0.00,CLR,CLR,0.00,WeatherDisplay:10.37,2013-05-15 20:31:00,
2013-05-15 16:36:00,60.8,53.5,0.00,WNW,298,1.2,1.2,77,0.00,CLR,CLR,0.00,WeatherDisplay:10.37,2013-05-15 20:36:00,
2013-05-15 16:42:00,60.5,54.0,0.00,ENE,78,4.6,4.6,79,0.00,CLR,CLR,0.00,WeatherDisplay:10.37,2013-05-15 20:42:00,
2013-05-15 16:48:00,60.1,53.9,0.00,SW,220,2.9,2.9,80,0.00,CLR,CLR,0.00,WeatherDisplay:10.37,2013-05-15 20:48:00,
2013-05-15 16:53:00,60.0,53.8,0.00,NNW,340,1.2,1.2,80,0.00,CLR,CLR,0.00,WeatherDisplay:10.37,2013-05-15 20:53:00,
2013-05-15 16:59:00,59.8,54.0,0.00,NNE,27,3.5,3.5,81,0.00,CLR,CLR,0.00,WeatherDisplay:10.37,2013-05-15 20:59:00,
2013-05-15 17:04:00,59.6,54.1,0.00,NE,56,3.5,3.5,82,0.00,CLR,CLR,0.00,WeatherDisplay:10.37,2013-05-15 21:04:00,
2013-05-15 17:09:00,59.5,54.0,0.00,West,277,2.3,2.3,82,0.00,CLR,CLR,0.00,WeatherDisplay:10.37,2013-05-15 21:09:00,
2013-05-15 17:14:00,59.5,54.3,0.00,NW,306,3.5,3.5,83,0.00,CLR,CLR,0.00,WeatherDisplay:10.37,2013-05-15 21:14:00,
2013-05-15 17:19:00,59.4,54.2,0.00,NNE,20,3.5,3.5,83,0.00,CLR,CLR,0.00,WeatherDisplay:10.37,2013-05-15 21:19:00,
2013-05-15 17:24:00,59.3,54.5,0.00,West,269,0.0,0.0,84,0.00,CLR,CLR,0.00,WeatherDisplay:10.37,2013-05-15 21:24:00,
2013-05-15 17:30:00,59.3,54.5,0.00,NW,316,3.5,3.5,84,0.00,CLR,CLR,0.00,WeatherDisplay:10.37,2013-05-15 21:30:00,
2013-05-15 17:35:00,59.2,54.4,0.00,NNW,337,3.5,3.5,84,0.00,CLR,CLR,0.00,WeatherDisplay:10.37,2013-05-15 21:35:00,
2013-05-15 17:40:00,59.1,54.6,0.00,West,260,4.6,4.6,85,0.00,CLR,CLR,0.00,WeatherDisplay:10.37,2013-05-15 21:40:00,
2013-05-15 17:46:00,59.0,54.5,0.00,NW,305,1.2,1.2,85,0.00,CLR,CLR,0.00,WeatherDisplay:10.37,2013-05-15 21:46:00,
2013-05-15 17:51:00,58.9,54.7,0.00,WSW,244,3.5,3.5,86,0.00,CLR,CLR,0.00,WeatherDisplay:10.37,2013-05-15 21:51:00,
2013-05-15 17:56:00,58.8,54.6,0.00,SW,224,3.5,3.5,86,0.00,CLR,CLR,0.00,WeatherDisplay:10.37,2013-05-15 21:56:00,
2013-05-15 18:01:00,58.7,54.5,0.00,NE,35,2.3,2.3,86,0.00,CLR,CLR,0.00,WeatherDisplay:10.37,2013-05-15 22:01:00,
2013-05-15 18:06:00,58.6,54.7,0.00,NNE,23,2.3,2.3,87,0.00,CLR,CLR,0.00,WeatherDisplay:10.37,2013-05-15 22:06:00,
2013-05-15 18:12:00,58.6,54.7,0.00,NNW,347,2.3,2.3,87,0.00,CLR,CLR,0.00,WeatherDisplay:10.37,2013-05-15 22:12:00,
2013-05-15 18:17:00,58.5,54.6,0.00,NNE,32,3.7,3.7,87,0.00,CLR,CLR,0.00,WeatherDisplay:10.37,2013-05-15 22:17:00,
2013-05-15 18:22:00,58.4,54.5,0.00,West,260,0.0,0.4,87,0.00,CLR,CLR,0.00,WeatherDisplay:10.37,2013-05-15 22:22:00,
2013-05-15 18:28:00,58.4,54.5,0.00,NNE,16,1.2,1.2,87,0.00,CLR,CLR,0.00,WeatherDisplay:10.37,2013-05-15 22:28:00,
2013-05-15 18:33:00,58.3,54.4,0.00,NW,306,3.5,3.5,87,0.00,CLR,CLR,0.00,WeatherDisplay:10.37,2013-05-15 22:33:00,
2013-05-15 18:38:00,58.4,54.5,0.00,NW,322,1.2,1.2,87,0.00,CLR,CLR,0.00,WeatherDisplay:10.37,2013-05-15 22:38:00,
2013-05-15 18:43:00,58.3,54.4,0.00,WSW,247,1.2,1.2,87,0.00,CLR,CLR,0.00,WeatherDisplay:10.37,2013-05-15 22:43:00,
2013-05-15 18:48:00,58.3,54.4,0.00,North,353,0.0,0.0,87,0.00,CLR,CLR,0.00,WeatherDisplay:10.37,2013-05-15 22:48:00,
2013-05-15 18:53:00,58.3,54.4,0.00,West,281,3.5,3.5,87,0.00,CLR,CLR,0.00,WeatherDisplay:10.37,2013-05-15 22:53:00,
2013-05-15 18:59:00,58.3,54.4,0.00,WSW,257,0.0,0.0,87,0.00,CLR,CLR,0.00,WeatherDisplay:10.37,2013-05-15 22:59:00,
2013-05-15 19:04:00,58.2,54.3,0.00,NNW,328,6.9,6.9,87,0.00,CLR,CLR,0.00,WeatherDisplay:10.37,2013-05-15 23:04:00,
2013-05-15 19:09:00,58.2,54.3,0.00,WNW,289,0.0,0.0,87,0.00,CLR,CLR,0.00,WeatherDisplay:10.37,2013-05-15 23:09:00,
2013-05-15 19:14:00,58.1,54.6,0.00,WNW,291,2.3,2.3,88,0.00,CLR,CLR,0.00,WeatherDisplay:10.37,2013-05-15 23:14:00,
2013-05-15 19:19:00,58.2,54.7,0.00,WNW,298,1.2,0.0,88,0.00,CLR,CLR,0.00,WeatherDisplay:10.37,2013-05-15 23:19:00,
2013-05-15 19:24:00,58.2,54.7,0.00,NE,55,2.3,2.3,88,0.00,CLR,CLR,0.00,WeatherDisplay:10.37,2013-05-15 23:24:00,
2013-05-15 19:29:00,58.1,54.6,0.00,NNE,23,1.2,0.0,88,0.00,CLR,CLR,0.00,WeatherDisplay:10.37,2013-05-15 23:29:00,
2013-05-15 19:35:00,58.1,54.6,0.00,WNW,296,1.2,1.2,88,0.00,CLR,CLR,0.00,WeatherDisplay:10.37,2013-05-15 23:35:00,
2013-05-15 19:40:00,58.1,54.6,0.00,NE,49,1.2,0.0,88,0.00,CLR,CLR,0.00,WeatherDisplay:10.37,2013-05-15 23:40:00,
2013-05-15 19:45:00,58.1,54.6,0.00,NNE,27,0.0,5.0,88,0.00,CLR,CLR,0.00,WeatherDisplay:10.37,2013-05-15 23:45:00,
2013-05-15 19:51:00,58.1,54.9,0.00,NNE,14,3.5,3.5,89,0.00,CLR,CLR,0.00,WeatherDisplay:10.37,2013-05-15 23:51:00,
2013-05-15 19:56:00,58.1,54.9,0.00,WNW,296,0.0,0.0,89,0.00,CLR,CLR,0.00,WeatherDisplay:10.37,2013-05-15 23:56:00,
2013-05-15 20:01:00,58.1,54.9,0.00,NNW,344,2.3,2.3,89,0.00,CLR,CLR,0.00,WeatherDisplay:10.37,2013-05-16 00:01:00,
2013-05-15 20:06:00,58.1,54.9,0.00,SSE,148,0.0,0.0,89,0.00,CLR,CLR,0.00,WeatherDisplay:10.37,2013-05-16 00:06:00,
2013-05-15 20:11:00,58.0,54.8,0.00,WNW,301,2.3,2.3,89,0.00,CLR,CLR,0.00,WeatherDisplay:10.37,2013-05-16 00:11:00,
2013-05-15 20:17:00,58.0,55.1,0.00,West,270,2.3,2.3,90,0.00,CLR,CLR,0.00,WeatherDisplay:10.37,2013-05-16 00:17:00,
2013-05-15 20:22:00,58.0,55.1,0.00,NE,56,2.3,0.0,90,0.00,CLR,CLR,0.00,WeatherDisplay:10.37,2013-05-16 00:22:00,
2013-05-15 20:27:00,58.0,55.1,0.00,East,97,2.3,2.3,90,0.00,CLR,CLR,0.00,WeatherDisplay:10.37,2013-05-16 00:27:00,
2013-05-15 20:33:00,58.0,55.1,0.00,WSW,247,1.2,1.2,90,0.00,CLR,CLR,0.00,WeatherDisplay:10.37,2013-05-16 00:33:00,
2013-05-15 20:39:00,58.0,55.1,0.00,ENE,62,0.0,0.0,90,0.00,CLR,CLR,0.00,WeatherDisplay:10.37,2013-05-16 00:39:00,
2013-05-15 20:44:00,57.9,55.0,0.00,SSW,213,1.2,0.0,90,0.00,CLR,CLR,0.00,WeatherDisplay:10.37,2013-05-16 00:44:00,
2013-05-15 20:49:00,57.9,55.0,0.00,WSW,251,2.3,0.0,90,0.00,CLR,CLR,0.00,WeatherDisplay:10.37,2013-05-16 00:49:00,
2013-05-15 20:54:00,57.9,55.0,0.00,South,169,0.0,0.0,90,0.00,CLR,CLR,0.00,WeatherDisplay:10.37,2013-05-16 00:54:00,
2013-05-15 21:00:00,57.9,55.0,0.00,South,179,1.0,5.0,90,0.00,CLR,CLR,0.00,WeatherDisplay:10.37,2013-05-16 01:00:00,
2013-05-15 21:05:00,57.8,54.9,0.00,West,267,3.5,3.5,90,0.00,CLR,CLR,0.00,WeatherDisplay:10.37,2013-05-16 01:05:00,
2013-05-15 21:11:00,57.8,54.9,0.00,NW,319,2.3,2.3,90,0.00,CLR,CLR,0.00,WeatherDisplay:10.37,2013-05-16 01:11:00,
2013-05-15 21:17:00,57.7,55.1,0.00,East,92,0.9,1.3,91,0.00,CLR,CLR,0.00,WeatherDisplay:10.37,2013-05-16 01:17:00,
2013-05-15 21:22:00,57.7,55.1,0.00,SW,217,1.2,0.0,91,0.00,CLR,CLR,0.00,WeatherDisplay:10.37,2013-05-16 01:22:00,
2013-05-15 21:27:00,57.7,55.1,0.00,SW,217,0.0,0.0,91,0.00,CLR,CLR,0.00,WeatherDisplay:10.37,2013-05-16 01:27:00,
2013-05-15 21:32:00,57.6,55.0,0.00,West,268,0.0,0.0,91,0.00,CLR,CLR,0.00,WeatherDisplay:10.37,2013-05-16 01:32:00,
2013-05-15 21:37:00,57.6,55.0,0.00,West,268,0.0,0.0,91,0.00,CLR,CLR,0.00,WeatherDisplay:10.37,2013-05-16 01:37:00,
2013-05-15 21:43:00,57.6,55.0,0.00,West,268,0.0,0.0,91,0.00,CLR,CLR,0.00,WeatherDisplay:10.37,2013-05-16 01:43:00,
2013-05-15 21:49:00,57.5,54.9,0.00,ESE,114,0.0,0.0,91,0.00,CLR,CLR,0.00,WeatherDisplay:10.37,2013-05-16 01:49:00,
2013-05-15 21:55:00,57.5,54.9,0.00,ESE,114,0.0,0.0,91,0.00,CLR,CLR,0.00,WeatherDisplay:10.37,2013-05-16 01:55:00,
2013-05-15 22:00:00,57.6,55.0,0.00,ESE,114,0.0,0.0,91,0.00,CLR,CLR,0.00,WeatherDisplay:10.37,2013-05-16 02:00:00,
2013-05-15 22:05:00,57.6,55.0,0.00,ESE,114,0.0,0.0,91,0.00,CLR,CLR,0.00,WeatherDisplay:10.37,2013-05-16 02:05:00,
2013-05-15 22:10:00,57.6,55.0,0.00,SSE,147,0.0,0.0,91,0.00,CLR,CLR,0.00,WeatherDisplay:10.37,2013-05-16 02:10:00,
2013-05-15 22:15:00,57.4,54.8,0.00,SSE,147,0.0,1.0,91,0.00,CLR,CLR,0.00,WeatherDisplay:10.37,2013-05-16 02:15:00,
2013-05-15 22:20:00,57.5,54.9,0.00,WSW,244,3.9,3.9,91,0.00,CLR,CLR,0.00,WeatherDisplay:10.37,2013-05-16 02:20:00,
2013-05-15 22:26:00,57.3,55.0,0.00,WSW,240,3.5,3.5,92,0.00,CLR,CLR,0.00,WeatherDisplay:10.37,2013-05-16 02:26:00,
2013-05-15 22:31:00,57.3,55.0,0.00,SW,219,1.2,1.2,92,0.00,CLR,CLR,0.00,WeatherDisplay:10.37,2013-05-16 02:31:00,
2013-05-15 22:36:00,57.2,54.9,0.00,South,181,2.3,2.3,92,0.00,CLR,CLR,0.00,WeatherDisplay:10.37,2013-05-16 02:36:00,
2013-05-15 22:41:00,57.2,54.9,0.00,South,181,0.0,0.0,92,0.00,CLR,CLR,0.00,WeatherDisplay:10.37,2013-05-16 02:41:00,
2013-05-15 22:46:00,57.3,55.0,0.00,WSW,237,2.3,0.0,92,0.00,CLR,CLR,0.00,WeatherDisplay:10.37,2013-05-16 02:46:00,
2013-05-15 22:51:00,57.2,54.9,0.00,South,171,0.0,0.0,92,0.00,CLR,CLR,0.00,WeatherDisplay:10.37,2013-05-16 02:51:00,
2013-05-15 22:57:00,57.2,54.9,0.00,South,188,3.5,3.5,92,0.00,CLR,CLR,0.00,WeatherDisplay:10.37,2013-05-16 02:57:00,
2013-05-15 23:02:00,57.1,54.8,0.00,WSW,258,2.3,3.5,92,0.00,CLR,CLR,0.00,WeatherDisplay:10.37,2013-05-16 03:02:00,
2013-05-15 23:07:00,57.0,55.0,0.00,South,175,2.3,0.0,93,0.00,CLR,CLR,0.00,WeatherDisplay:10.37,2013-05-16 03:07:00,
2013-05-15 23:12:00,57.0,55.0,0.00,SE,126,0.4,1.1,93,0.00,CLR,CLR,0.00,WeatherDisplay:10.37,2013-05-16 03:12:00,
2013-05-15 23:17:00,57.0,55.0,0.00,SE,126,0.0,0.0,93,0.00,CLR,CLR,0.00,WeatherDisplay:10.37,2013-05-16 03:17:00,
2013-05-15 23:22:00,57.0,55.0,0.00,SSW,195,2.2,2.2,93,0.00,CLR,CLR,0.00,WeatherDisplay:10.37,2013-05-16 03:22:00,
2013-05-15 23:28:00,57.0,55.3,0.00,WSW,244,0.0,0.0,94,0.00,CLR,CLR,0.00,WeatherDisplay:10.37,2013-05-16 03:28:00,
2013-05-15 23:33:00,56.9,55.2,0.00,SSW,202,2.3,2.3,94,0.00,CLR,CLR,0.00,WeatherDisplay:10.37,2013-05-16 03:33:00,
2013-05-15 23:38:00,56.9,55.2,0.00,West,265,0.0,0.0,94,0.00,CLR,CLR,0.00,WeatherDisplay:10.37,2013-05-16 03:38:00,
2013-05-15 23:43:00,56.9,55.2,0.00,WSW,256,1.2,1.2,94,0.00,CLR,CLR,0.00,WeatherDisplay:10.37,2013-05-16 03:43:00,
2013-05-15 23:49:00,56.9,55.2,0.00,SSW,208,0.0,0.0,94,0.00,CLR,CLR,0.00,WeatherDisplay:10.37,2013-05-16 03:49:00,
2013-05-15 23:54:00,56.8,55.1,0.00,SSW,208,0.0,0.0,94,0.00,CLR,CLR,0.00,WeatherDisplay:10.37,2013-05-16 03:54:00,
2013-05-15 23:59:00,56.8,55.1,0.00,SW,215,0.0,0.0,94,0.00,CLR,CLR,0.00,WeatherDisplay:10.37,2013-05-16 03:59:00,